Darstellungsparameter: Aktuell verwendete Einstellungen:
Skalierung der Graphiken ... ?
xyx+y,   Skalierungsfaktor:      Skalierung: Modus: x, Faktor: 1
Darstellungszeitraum ... ?
Vom - - bis: - -   Zeitraum: 27.07.2020 - 16.08.2020
Min/Max/Avg-Anzeige ... ?
Zeige MMA aktuell
Zeige MMA Monat
Zeige MMA alles
Zeige --A aktuell
Zeige --A Monat
Zeige --A alles
Keine MMA-Anzeige
MMA:
Average (ber die Originaldaten)
MMA-Basis: 27.07.2020 - 16.08.2020
Quicknavigation für Darstellung... ?
Tage:      1T, 2T, 3T, 5T -1T -2T -3T -5T +1T +2T +3T +5T
Wochen: 1W, 2W, 3W -1W -2W -3W +1W +2W +3W
Monate: 1M, 3M, 6M -1M -3M -6M +1M +3M +6M
Jahre:    1J, 3J, 5J, 10J -1J -3J -5J -10J +1J +3J +5J +10J
Nutze für die Darstellung ... ?
Originaldaten oder ...
Mittelwerte Minima Maxima auf...
Stundenbasis Tagesbasis Wochenbasis
Monatsbasis Jahresbasis      Datenbasis: Mittelwerte auf Stundenbasis
Darstellen als:
Statistik (Auto) Statistik J:M      Darstellung:
Zur Graphik,    zurück zur Übersicht aller Sensoren.
 
Tabellarische Datenbersicht: ?
 
Sensor: Nr:Datum:Temp:Abs-Feuchte:Windchill:Wind:
Aussen-T/F 1 27-07-2020 00:00:00 16.64167 C 11.32 g/m*3 16.64 C 0 km/h
2 27-07-2020 01:00:00 15.41667 C 10.75 g/m*3 15.42 C 0 km/h
3 27-07-2020 02:00:00 14.35833 C 10.49 g/m*3 14.36 C 0 km/h
4 27-07-2020 03:00:00 13.5 C 10.23 g/m*3 13.5 C 0 km/h
5 27-07-2020 04:00:00 12.85 C 10.05 g/m*3 12.85 C 0 km/h
6 27-07-2020 05:00:00 12.78333 C 10.29 g/m*3 12.78 C 0 km/h
7 27-07-2020 06:00:00 12.86667 C 10.38 g/m*3 12.87 C 0 km/h
8 27-07-2020 07:00:00 13.64167 C 10.91 g/m*3 13.64 C 0.4 km/h
9 27-07-2020 08:00:00 15.39167 C 11.63 g/m*3 15.39 C 0.13333 km/h
10 27-07-2020 09:00:00 17.2 C 12.08 g/m*3 17.2 C 1.2 km/h
11 27-07-2020 10:00:00 19.9 C 13.07 g/m*3 19.9 C 1.86667 km/h
12 27-07-2020 11:00:00 22.79167 C 13.15 g/m*3 22.79 C 2.93333 km/h
13 27-07-2020 12:00:00 24.79167 C 12.29 g/m*3 24.79 C 8.85833 km/h
14 27-07-2020 13:00:00 26.49167 C 10.93 g/m*3 26.49 C 11.425 km/h
15 27-07-2020 14:00:00 27.43333 C 11.86 g/m*3 27.43 C 10.75 km/h
16 27-07-2020 15:00:00 29.06667 C 11.53 g/m*3 29.07 C 9.95 km/h
17 27-07-2020 16:00:00 28.9 C 10.69 g/m*3 28.9 C 8.85833 km/h
18 27-07-2020 17:00:00 31.65 C 10.11 g/m*3 31.65 C 14.625 km/h
19 27-07-2020 18:00:00 31.275 C 10.1 g/m*3 31.28 C 10.48333 km/h
20 27-07-2020 19:00:00 30.54167 C 11.81 g/m*3 30.54 C 2.66667 km/h
21 27-07-2020 20:00:00 28.575 C 12.44 g/m*3 28.58 C 5.475 km/h
22 27-07-2020 21:00:00 26.09167 C 11.87 g/m*3 26.09 C 6.54167 km/h
23 27-07-2020 22:00:00 24.54167 C 11.7 g/m*3 24.54 C 3.20833 km/h
24 27-07-2020 23:00:00 23.19167 C 11.97 g/m*3 23.19 C 0 km/h
25 28-07-2020 00:00:00 21.54167 C 11.58 g/m*3 21.54 C 0 km/h
Sensor: Nr:Datum:Temp:Abs-Feuchte:Windchill:Wind:
Aussen-T/F 26 28-07-2020 01:00:00 21.90833 C 11.74 g/m*3 21.91 C 0 km/h
27 28-07-2020 02:00:00 22.19167 C 11.76 g/m*3 22.19 C 2.26667 km/h
28 28-07-2020 03:00:00 21.16667 C 11.56 g/m*3 21.17 C 1.33333 km/h
29 28-07-2020 04:00:00 20.19167 C 11.49 g/m*3 20.19 C 4.54167 km/h
30 28-07-2020 05:00:00 20.075 C 11.17 g/m*3 20.08 C 2.55 km/h
31 28-07-2020 06:00:00 19.7 C 11.65 g/m*3 19.7 C 0.26667 km/h
32 28-07-2020 07:00:00 20.35 C 12.1 g/m*3 20.35 C 2.94167 km/h
33 28-07-2020 08:00:00 21.71667 C 12.89 g/m*3 21.72 C 8.18333 km/h
34 28-07-2020 09:00:00 22.54167 C 13.35 g/m*3 22.54 C 12.9 km/h
35 28-07-2020 10:00:00 23.03333 C 12.6 g/m*3 23.03 C 16.1 km/h
36 28-07-2020 11:00:00 23.83333 C 12.19 g/m*3 23.83 C 15.83333 km/h
37 28-07-2020 12:00:00 24.425 C 11.83 g/m*3 24.43 C 16.1 km/h
38 28-07-2020 13:00:00 25.56667 C 11.07 g/m*3 25.57 C 17.96667 km/h
39 28-07-2020 14:00:00 25.93333 C 10.63 g/m*3 25.93 C 15.43333 km/h
40 28-07-2020 15:00:00 26.26667 C 10.11 g/m*3 26.27 C 13.95833 km/h
41 28-07-2020 16:00:00 27.025 C 10.14 g/m*3 27.03 C 13.96667 km/h
42 28-07-2020 17:00:00 27.4 C 9.71 g/m*3 27.4 C 15.96667 km/h
43 28-07-2020 18:00:00 27.275 C 9.56 g/m*3 27.28 C 13.56667 km/h
44 28-07-2020 19:00:00 25.625 C 9.24 g/m*3 25.63 C 15.7 km/h
45 28-07-2020 20:00:00 23.18333 C 8.9 g/m*3 23.18 C 11.56667 km/h
46 28-07-2020 21:00:00 21.01667 C 8.95 g/m*3 21.02 C 5.89167 km/h
47 28-07-2020 22:00:00 19.30833 C 9.04 g/m*3 19.31 C 4.69167 km/h
48 28-07-2020 23:00:00 18.66667 C 9.28 g/m*3 18.67 C 3.21667 km/h
49 29-07-2020 00:00:00 16.475 C 9.3 g/m*3 16.48 C 1.86667 km/h
50 29-07-2020 01:00:00 15.94167 C 9.93 g/m*3 15.94 C 3.875 km/h
Sensor: Nr:Datum:Temp:Abs-Feuchte:Windchill:Wind:
Aussen-T/F 51 29-07-2020 02:00:00 15.18333 C 9.85 g/m*3 15.18 C 3.6 km/h
52 29-07-2020 03:00:00 13.625 C 9.5 g/m*3 13.63 C 0 km/h
53 29-07-2020 04:00:00 12.425 C 9.33 g/m*3 12.43 C 1.33333 km/h
54 29-07-2020 05:00:00 11.70833 C 9.16 g/m*3 11.71 C 0.13333 km/h
55 29-07-2020 06:00:00 11.7 C 9.23 g/m*3 11.7 C 1.86667 km/h
56 29-07-2020 07:00:00 12.03333 C 9.37 g/m*3 12.03 C 3.46667 km/h
57 29-07-2020 08:00:00 13.1 C 9.79 g/m*3 13.1 C 2.53333 km/h
58 29-07-2020 09:00:00 15.5 C 10.13 g/m*3 15.5 C 3.86667 km/h
59 29-07-2020 10:00:00 18.125 C 10.03 g/m*3 18.13 C 4.95 km/h
60 29-07-2020 11:00:00 20.34167 C 9.99 g/m*3 20.34 C 8.85833 km/h
61 29-07-2020 12:00:00 21.3 C 9.69 g/m*3 21.3 C 10.225 km/h
62 29-07-2020 13:00:00 22.13333 C 9.24 g/m*3 22.13 C 9.54167 km/h
63 29-07-2020 14:00:00 23.725 C 8.96 g/m*3 23.73 C 8.46667 km/h
64 29-07-2020 15:00:00 25.4 C 8.95 g/m*3 25.4 C 8.875 km/h
65 29-07-2020 16:00:00 26.7 C 9.13 g/m*3 26.7 C 11.83333 km/h
66 29-07-2020 17:00:00 26.99167 C 9.11 g/m*3 26.99 C 10.9 km/h
67 29-07-2020 18:00:00 26.90833 C 9.22 g/m*3 26.91 C 11.03333 km/h
68 29-07-2020 19:00:00 25.675 C 9.44 g/m*3 25.68 C 10.49167 km/h
69 29-07-2020 20:00:00 23.55 C 9.46 g/m*3 23.55 C 10.89167 km/h
70 29-07-2020 21:00:00 21.25 C 9.57 g/m*3 21.25 C 2.54167 km/h
71 29-07-2020 22:00:00 18.10833 C 9.44 g/m*3 18.11 C 0.13333 km/h
72 29-07-2020 23:00:00 16.8 C 9.5 g/m*3 16.8 C 0 km/h
73 30-07-2020 00:00:00 15.30833 C 9.46 g/m*3 15.31 C 0 km/h
74 30-07-2020 01:00:00 14.05833 C 9.33 g/m*3 14.06 C 0 km/h
75 30-07-2020 02:00:00 13.23333 C 9.21 g/m*3 13.23 C 0 km/h
Sensor: Nr:Datum:Temp:Abs-Feuchte:Windchill:Wind:
Aussen-T/F 76 30-07-2020 03:00:00 12.50833 C 9.11 g/m*3 12.51 C 0 km/h
77 30-07-2020 04:00:00 11.88333 C 9 g/m*3 11.88 C 0 km/h
78 30-07-2020 05:00:00 11.425 C 8.94 g/m*3 11.43 C 0 km/h
79 30-07-2020 06:00:00 11.18333 C 8.96 g/m*3 11.18 C 0 km/h
80 30-07-2020 07:00:00 11.65833 C 9.34 g/m*3 11.66 C 0 km/h
81 30-07-2020 08:00:00 12.58333 C 9.83 g/m*3 12.58 C 0 km/h
82 30-07-2020 09:00:00 14.55833 C 10.57 g/m*3 14.56 C 0.13333 km/h
83 30-07-2020 10:00:00 18.74167 C 10.87 g/m*3 18.74 C 3.74167 km/h
84 30-07-2020 11:00:00 22.01667 C 10.68 g/m*3 22.02 C 4.80833 km/h
85 30-07-2020 12:00:00 23.54167 C 10.4 g/m*3 23.54 C 7.38333 km/h
86 30-07-2020 13:00:00 24.925 C 9.78 g/m*3 24.93 C 8.05 km/h
87 30-07-2020 14:00:00 26.43333 C 9.56 g/m*3 26.43 C 8.86667 km/h
88 30-07-2020 15:00:00 28.15833 C 9.58 g/m*3 28.16 C 9.95 km/h
89 30-07-2020 16:00:00 30.00833 C 8.9 g/m*3 30.01 C 8.475 km/h
90 30-07-2020 17:00:00 31.15833 C 8.77 g/m*3 31.16 C 6.95833 km/h
91 30-07-2020 18:00:00 31.74167 C 8.69 g/m*3 31.74 C 7.79167 km/h
92 30-07-2020 19:00:00 30.46667 C 8.63 g/m*3 30.47 C 8.61667 km/h
93 30-07-2020 20:00:00 28.75 C 9.52 g/m*3 28.75 C 3.60833 km/h
94 30-07-2020 21:00:00 24.4 C 9.9 g/m*3 24.4 C 4.26667 km/h
95 30-07-2020 22:00:00 21.8 C 9.59 g/m*3 21.8 C 2.8 km/h
96 30-07-2020 23:00:00 19.8 C 9.76 g/m*3 19.8 C 0.4 km/h
97 31-07-2020 00:00:00 18.05833 C 9.58 g/m*3 18.06 C 0 km/h
98 31-07-2020 01:00:00 16.85833 C 9.48 g/m*3 16.86 C 0 km/h
99 31-07-2020 02:00:00 15.76667 C 9.46 g/m*3 15.77 C 0 km/h
100 31-07-2020 03:00:00 14.99167 C 9.52 g/m*3 14.99 C 0 km/h
Sensor: Nr:Datum:Temp:Abs-Feuchte:Windchill:Wind:
Aussen-T/F 101 31-07-2020 04:00:00 14.15 C 9.54 g/m*3 14.15 C 0 km/h
102 31-07-2020 05:00:00 13.54167 C 9.54 g/m*3 13.54 C 0 km/h
103 31-07-2020 06:00:00 13.23333 C 9.63 g/m*3 13.23 C 0.13333 km/h
104 31-07-2020 07:00:00 13.45833 C 9.9 g/m*3 13.46 C 0 km/h
105 31-07-2020 08:00:00 14.39167 C 10.42 g/m*3 14.39 C 0.13333 km/h
106 31-07-2020 09:00:00 16.38333 C 11.11 g/m*3 16.38 C 0.4 km/h
107 31-07-2020 10:00:00 20.825 C 11.3 g/m*3 20.83 C 2.13333 km/h
108 31-07-2020 11:00:00 25.40833 C 11.05 g/m*3 25.41 C 5.90833 km/h
109 31-07-2020 12:00:00 29.4 C 10.23 g/m*3 29.4 C 14.76667 km/h
110 31-07-2020 13:00:00 30.825 C 10.49 g/m*3 30.83 C 10.1 km/h
111 31-07-2020 14:00:00 32.25833 C 10.58 g/m*3 32.26 C 8.34167 km/h
112 31-07-2020 15:00:00 34.3 C 10.32 g/m*3 34.3 C 8.46667 km/h
113 31-07-2020 16:00:00 36.68333 C 10.35 g/m*3 36.68 C 7.51667 km/h
114 31-07-2020 17:00:00 37.475 C 10.25 g/m*3 37.48 C 8.06667 km/h
115 31-07-2020 18:00:00 37.51667 C 9.71 g/m*3 37.52 C 8.2 km/h
116 31-07-2020 19:00:00 36.10833 C 10.05 g/m*3 36.11 C 5.35 km/h
117 31-07-2020 20:00:00 33.38333 C 11.38 g/m*3 33.38 C 3.73333 km/h
118 31-07-2020 21:00:00 27.14167 C 11.22 g/m*3 27.14 C 7.39167 km/h
119 31-07-2020 22:00:00 24.775 C 11.02 g/m*3 24.78 C 3.74167 km/h
120 31-07-2020 23:00:00 22.90833 C 11.18 g/m*3 22.91 C 1.73333 km/h
121 01-08-2020 00:00:00 21.03333 C 11.26 g/m*3 21.03 C 0.13333 km/h
122 01-08-2020 01:00:00 19.66667 C 11.48 g/m*3 19.67 C 0 km/h
123 01-08-2020 02:00:00 18.95 C 11.44 g/m*3 18.95 C 0.8 km/h
124 01-08-2020 03:00:00 18.31667 C 11.36 g/m*3 18.32 C 0 km/h
125 01-08-2020 04:00:00 17.65833 C 11.39 g/m*3 17.66 C 0.26667 km/h
Sensor: Nr:Datum:Temp:Abs-Feuchte:Windchill:Wind:
Aussen-T/F 126 01-08-2020 05:00:00 18.01667 C 11.66 g/m*3 18.02 C 0.8 km/h
127 01-08-2020 06:00:00 18.16667 C 11.71 g/m*3 18.17 C 0.8 km/h
128 01-08-2020 07:00:00 18.06667 C 12.13 g/m*3 18.07 C 0.4 km/h
129 01-08-2020 08:00:00 20.725 C 13.07 g/m*3 20.73 C 9.54167 km/h
130 01-08-2020 09:00:00 19.875 C 14.73 g/m*3 19.88 C 9.53333 km/h
131 01-08-2020 10:00:00 19.83333 C 15.73 g/m*3 19.83 C 2.275 km/h
132 01-08-2020 11:00:00 20.24167 C 16.52 g/m*3 20.24 C 0.13333 km/h
133 01-08-2020 12:00:00 21.00833 C 17.24 g/m*3 21.01 C 1.46667 km/h
134 01-08-2020 13:00:00 21.80833 C 17.76 g/m*3 21.81 C 1.73333 km/h
135 01-08-2020 14:00:00 23.7 C 18.36 g/m*3 23.7 C 2.93333 km/h
136 01-08-2020 15:00:00 25.79167 C 19.21 g/m*3 25.79 C 6.15833 km/h
137 01-08-2020 16:00:00 29.71667 C 18.57 g/m*3 29.72 C 6.15 km/h
138 01-08-2020 17:00:00 31.86667 C 17.35 g/m*3 31.87 C 7.10833 km/h
139 01-08-2020 18:00:00 30.9 C 17.35 g/m*3 30.9 C 5.49167 km/h
140 01-08-2020 19:00:00 27.6 C 17.56 g/m*3 27.6 C 5.75 km/h
141 01-08-2020 20:00:00 22.15 C 17.26 g/m*3 22.15 C 11.16667 km/h
142 01-08-2020 21:00:00 21.10833 C 17.45 g/m*3 21.11 C 8.59167 km/h
143 01-08-2020 22:00:00 20.9 C 17.48 g/m*3 20.9 C 8.21667 km/h
144 01-08-2020 23:00:00 20.525 C 17.11 g/m*3 20.53 C 7.11667 km/h
145 02-08-2020 00:00:00 20.11667 C 16.7 g/m*3 20.12 C 5.75 km/h
146 02-08-2020 01:00:00 20.01667 C 16.71 g/m*3 20.02 C 4.68333 km/h
147 02-08-2020 02:00:00 19.41667 C 16.03 g/m*3 19.42 C 3.075 km/h
148 02-08-2020 03:00:00 18.95 C 15.6 g/m*3 18.95 C 3.74167 km/h
149 02-08-2020 04:00:00 18.53333 C 15.27 g/m*3 18.53 C 2.93333 km/h
150 02-08-2020 05:00:00 17.55833 C 14.36 g/m*3 17.56 C 2.53333 km/h
Sensor: Nr:Datum:Temp:Abs-Feuchte:Windchill:Wind:
Aussen-T/F 151 02-08-2020 06:00:00 17.075 C 13.92 g/m*3 17.08 C 3.88333 km/h
152 02-08-2020 07:00:00 17.50833 C 14.03 g/m*3 17.51 C 1.46667 km/h
153 02-08-2020 08:00:00 18.175 C 14.59 g/m*3 18.18 C 0.4 km/h
154 02-08-2020 09:00:00 19.45833 C 14.06 g/m*3 19.46 C 3.75 km/h
155 02-08-2020 10:00:00 21.06667 C 13.56 g/m*3 21.07 C 8.6 km/h
156 02-08-2020 11:00:00 22.16667 C 13.6 g/m*3 22.17 C 8.34167 km/h
157 02-08-2020 12:00:00 22.63333 C 12.65 g/m*3 22.63 C 8.74167 km/h
158 02-08-2020 13:00:00 23.4 C 12.79 g/m*3 23.4 C 8.45833 km/h
159 02-08-2020 14:00:00 23.71667 C 12.06 g/m*3 23.72 C 10.75833 km/h
160 02-08-2020 15:00:00 24.61667 C 11.68 g/m*3 24.62 C 10.61667 km/h
161 02-08-2020 16:00:00 25.7 C 11.41 g/m*3 25.7 C 11.025 km/h
162 02-08-2020 17:00:00 26.125 C 12.05 g/m*3 26.13 C 12.9 km/h
163 02-08-2020 18:00:00 26.05833 C 11.24 g/m*3 26.06 C 11.96667 km/h
164 02-08-2020 19:00:00 25.53333 C 10.59 g/m*3 25.53 C 10.36667 km/h
165 02-08-2020 20:00:00 23.625 C 11.5 g/m*3 23.63 C 9.00833 km/h
166 02-08-2020 21:00:00 21.15833 C 11.82 g/m*3 21.16 C 3.35 km/h
167 02-08-2020 22:00:00 19.24167 C 12.11 g/m*3 19.24 C 1.46667 km/h
168 02-08-2020 23:00:00 18.98333 C 12.24 g/m*3 18.98 C 1.33333 km/h
169 03-08-2020 00:00:00 17.69167 C 12.13 g/m*3 17.69 C 2 km/h
170 03-08-2020 01:00:00 16.575 C 11.74 g/m*3 16.58 C 4.26667 km/h
171 03-08-2020 02:00:00 15.83333 C 11.54 g/m*3 15.83 C 2.4 km/h
172 03-08-2020 03:00:00 15 C 11.35 g/m*3 15 C 0.66667 km/h
173 03-08-2020 04:00:00 14.525 C 11.29 g/m*3 14.53 C 0.13333 km/h
174 03-08-2020 05:00:00 14.175 C 11.1 g/m*3 14.18 C 0 km/h
175 03-08-2020 06:00:00 13.46667 C 10.77 g/m*3 13.47 C 0 km/h
Sensor: Nr:Datum:Temp:Abs-Feuchte:Windchill:Wind:
Aussen-T/F 176 03-08-2020 07:00:00 14.2 C 11.34 g/m*3 14.2 C 1.33333 km/h
177 03-08-2020 08:00:00 16.075 C 11.69 g/m*3 16.08 C 0.13333 km/h
178 03-08-2020 09:00:00 17.925 C 11.89 g/m*3 17.93 C 0.80833 km/h
179 03-08-2020 10:00:00 19.01667 C 11.88 g/m*3 19.02 C 1.73333 km/h
180 03-08-2020 11:00:00 20.16667 C 11.37 g/m*3 20.17 C 3.74167 km/h
181 03-08-2020 12:00:00 21.18333 C 10.58 g/m*3 21.18 C 1.73333 km/h
182 03-08-2020 13:00:00 21.88333 C 10.44 g/m*3 21.88 C 3.6 km/h
183 03-08-2020 14:00:00 22.74167 C 10.55 g/m*3 22.74 C 4.00833 km/h
184 03-08-2020 15:00:00 22.83333 C 9.87 g/m*3 22.83 C 4.69167 km/h
185 03-08-2020 16:00:00 22.95 C 9.55 g/m*3 22.95 C 7.66667 km/h
186 03-08-2020 17:00:00 20.75833 C 10.67 g/m*3 20.76 C 12.23333 km/h
187 03-08-2020 18:00:00 20.08333 C 10.72 g/m*3 20.08 C 8.74167 km/h
188 03-08-2020 19:00:00 19.14167 C 11.19 g/m*3 19.14 C 5.075 km/h
189 03-08-2020 20:00:00 18.59167 C 11.19 g/m*3 18.59 C 1.73333 km/h
190 03-08-2020 21:00:00 17.55833 C 10.81 g/m*3 17.56 C 1.06667 km/h
191 03-08-2020 22:00:00 17.1 C 10.74 g/m*3 17.1 C 2.4 km/h
192 03-08-2020 23:00:00 16.56667 C 10.75 g/m*3 16.57 C 0 km/h
193 04-08-2020 00:00:00 16.3 C 10.93 g/m*3 16.3 C 0 km/h
194 04-08-2020 01:00:00 16.16667 C 11.09 g/m*3 16.17 C 0.66667 km/h
195 04-08-2020 02:00:00 16.35833 C 11.21 g/m*3 16.36 C 2.93333 km/h
196 04-08-2020 03:00:00 16.96667 C 11.13 g/m*3 16.97 C 8.45833 km/h
197 04-08-2020 04:00:00 16.29167 C 11.09 g/m*3 16.29 C 6.03333 km/h
198 04-08-2020 05:00:00 15.6 C 11.06 g/m*3 15.6 C 5.23333 km/h
199 04-08-2020 06:00:00 15.325 C 11.1 g/m*3 15.33 C 4.41667 km/h
200 04-08-2020 07:00:00 15.475 C 11.24 g/m*3 15.48 C 6.29167 km/h
Sensor: Nr:Datum:Temp:Abs-Feuchte:Windchill:Wind:
Aussen-T/F 201 04-08-2020 08:00:00 16.24167 C 11.35 g/m*3 16.24 C 6.71667 km/h
202 04-08-2020 09:00:00 17.05 C 11.33 g/m*3 17.05 C 8.05833 km/h
203 04-08-2020 10:00:00 17.78333 C 11.46 g/m*3 17.78 C 5.9 km/h
204 04-08-2020 11:00:00 19.25833 C 11.29 g/m*3 19.26 C 8.325 km/h
205 04-08-2020 12:00:00 20.05833 C 10.43 g/m*3 20.06 C 9.96667 km/h
206 04-08-2020 13:00:00 21.21667 C 10 g/m*3 21.22 C 11.43333 km/h
207 04-08-2020 14:00:00 22.275 C 9.83 g/m*3 22.28 C 11.29167 km/h
208 04-08-2020 15:00:00 23.31667 C 9.28 g/m*3 23.32 C 11.83333 km/h
209 04-08-2020 16:00:00 25.125 C 8.98 g/m*3 25.13 C 7.375 km/h
210 04-08-2020 17:00:00 24.95 C 8.95 g/m*3 24.95 C 8.6 km/h
211 04-08-2020 18:00:00 25.44167 C 8.93 g/m*3 25.44 C 9.53333 km/h
212 04-08-2020 19:00:00 24.74167 C 8.83 g/m*3 24.74 C 6.425 km/h
213 04-08-2020 20:00:00 22.95833 C 9.01 g/m*3 22.96 C 4.69167 km/h
214 04-08-2020 21:00:00 18.86667 C 9.34 g/m*3 18.87 C 5.46667 km/h
215 04-08-2020 22:00:00 16.825 C 9.19 g/m*3 16.83 C 4.93333 km/h
216 04-08-2020 23:00:00 15.125 C 9.32 g/m*3 15.13 C 0.26667 km/h
217 05-08-2020 00:00:00 13.75 C 9.01 g/m*3 13.75 C 0.13333 km/h
218 05-08-2020 01:00:00 12.93333 C 8.82 g/m*3 12.93 C 0.26667 km/h
219 05-08-2020 02:00:00 12.25833 C 8.74 g/m*3 12.26 C 0 km/h
220 05-08-2020 03:00:00 11.48333 C 8.58 g/m*3 11.48 C 0 km/h
221 05-08-2020 04:00:00 10.90833 C 8.52 g/m*3 10.91 C 0 km/h
222 05-08-2020 05:00:00 10.425 C 8.39 g/m*3 10.43 C 0 km/h
223 05-08-2020 06:00:00 10.15833 C 8.4 g/m*3 10.16 C 0 km/h
224 05-08-2020 07:00:00 10.43333 C 8.69 g/m*3 10.43 C 0 km/h
225 05-08-2020 08:00:00 11.25 C 9.11 g/m*3 11.25 C 0 km/h
Sensor: Nr:Datum:Temp:Abs-Feuchte:Windchill:Wind:
Aussen-T/F 226 05-08-2020 09:00:00 12.975 C 9.91 g/m*3 12.98 C 0 km/h
227 05-08-2020 10:00:00 15.775 C 10.85 g/m*3 15.78 C 0 km/h
228 05-08-2020 11:00:00 20.85833 C 10.83 g/m*3 20.86 C 4.55833 km/h
229 05-08-2020 12:00:00 24.08333 C 10.04 g/m*3 24.08 C 10.625 km/h
230 05-08-2020 13:00:00 25.325 C 9.77 g/m*3 25.33 C 10.225 km/h
231 05-08-2020 14:00:00 26.71667 C 9.75 g/m*3 26.72 C 9.41667 km/h
232 05-08-2020 15:00:00 28.66667 C 9.4 g/m*3 28.67 C 9.95833 km/h
233 05-08-2020 16:00:00 30.38333 C 9.29 g/m*3 30.38 C 9.55 km/h
234 05-08-2020 17:00:00 30.8 C 9.76 g/m*3 30.8 C 8.46667 km/h
235 05-08-2020 18:00:00 30.95833 C 9.61 g/m*3 30.96 C 8.45 km/h
236 05-08-2020 19:00:00 29.59167 C 9.07 g/m*3 29.59 C 6.56667 km/h
237 05-08-2020 20:00:00 27.075 C 9.43 g/m*3 27.08 C 3.74167 km/h
238 05-08-2020 21:00:00 21.8 C 9.61 g/m*3 21.8 C 5.61667 km/h
239 05-08-2020 22:00:00 19.61667 C 9.43 g/m*3 19.62 C 5.33333 km/h
240 05-08-2020 23:00:00 18.46667 C 9.47 g/m*3 18.47 C 1.46667 km/h
241 06-08-2020 00:00:00 16.99167 C 9.75 g/m*3 16.99 C 0 km/h
242 06-08-2020 01:00:00 15.95 C 9.61 g/m*3 15.95 C 0 km/h
243 06-08-2020 02:00:00 14.98333 C 9.48 g/m*3 14.98 C 0 km/h
244 06-08-2020 03:00:00 14.04167 C 9.44 g/m*3 14.04 C 0 km/h
245 06-08-2020 04:00:00 13.44167 C 9.48 g/m*3 13.44 C 0 km/h
246 06-08-2020 05:00:00 12.89167 C 9.36 g/m*3 12.89 C 0 km/h
247 06-08-2020 06:00:00 12.36667 C 9.37 g/m*3 12.37 C 0 km/h
248 06-08-2020 07:00:00 12.58333 C 9.68 g/m*3 12.58 C 0 km/h
249 06-08-2020 08:00:00 13.41667 C 10.16 g/m*3 13.42 C 0 km/h
250 06-08-2020 09:00:00 15.25833 C 10.97 g/m*3 15.26 C 0 km/h
Sensor: Nr:Datum:Temp:Abs-Feuchte:Windchill:Wind:
Aussen-T/F 251 06-08-2020 10:00:00 19.33333 C 11.76 g/m*3 19.33 C 3.75 km/h
252 06-08-2020 11:00:00 24.83333 C 11.21 g/m*3 24.83 C 7.39167 km/h
253 06-08-2020 12:00:00 26.23333 C 11.1 g/m*3 26.23 C 9 km/h
254 06-08-2020 13:00:00 27.21667 C 10.85 g/m*3 27.22 C 8.45833 km/h
255 06-08-2020 14:00:00 28.625 C 10.74 g/m*3 28.63 C 10.20833 km/h
256 06-08-2020 15:00:00 30.275 C 10.85 g/m*3 30.28 C 10.34167 km/h
257 06-08-2020 16:00:00 32.175 C 10.53 g/m*3 32.17 C 7.78333 km/h
258 06-08-2020 17:00:00 33.15833 C 10.56 g/m*3 33.16 C 7.66667 km/h
259 06-08-2020 18:00:00 32.84167 C 10.44 g/m*3 32.84 C 9.15 km/h
260 06-08-2020 19:00:00 31.30833 C 10.63 g/m*3 31.31 C 7.25 km/h
261 06-08-2020 20:00:00 29.03333 C 12.71 g/m*3 29.03 C 4 km/h
262 06-08-2020 21:00:00 24.38333 C 11.58 g/m*3 24.38 C 7.13333 km/h
263 06-08-2020 22:00:00 21.95 C 11.93 g/m*3 21.95 C 1.2 km/h
264 06-08-2020 23:00:00 20.35 C 11.76 g/m*3 20.35 C 0 km/h
265 07-08-2020 00:00:00 18.86667 C 11.56 g/m*3 18.87 C 0 km/h
266 07-08-2020 01:00:00 17.7 C 11.39 g/m*3 17.7 C 0 km/h
267 07-08-2020 02:00:00 16.95833 C 11.32 g/m*3 16.96 C 0 km/h
268 07-08-2020 03:00:00 16.225 C 11.19 g/m*3 16.23 C 0 km/h
269 07-08-2020 04:00:00 15.48333 C 11.05 g/m*3 15.48 C 0 km/h
270 07-08-2020 05:00:00 14.75833 C 10.87 g/m*3 14.76 C 0 km/h
271 07-08-2020 06:00:00 14.43333 C 10.92 g/m*3 14.43 C 0 km/h
272 07-08-2020 07:00:00 14.76667 C 11.18 g/m*3 14.77 C 0 km/h
273 07-08-2020 08:00:00 15.475 C 11.67 g/m*3 15.48 C 0 km/h
274 07-08-2020 09:00:00 17.13333 C 12.58 g/m*3 17.13 C 0 km/h
275 07-08-2020 10:00:00 19.925 C 13.29 g/m*3 19.93 C 0 km/h
Sensor: Nr:Datum:Temp:Abs-Feuchte:Windchill:Wind:
Aussen-T/F 276 07-08-2020 11:00:00 24.90833 C 13.28 g/m*3 24.91 C 0.13333 km/h
277 07-08-2020 12:00:00 28.75833 C 11.81 g/m*3 28.76 C 6.7 km/h
278 07-08-2020 13:00:00 30.26667 C 11.25 g/m*3 30.27 C 9.14167 km/h
279 07-08-2020 14:00:00 31.65833 C 11.19 g/m*3 31.66 C 9.39167 km/h
280 07-08-2020 15:00:00 32.99167 C 11.3 g/m*3 32.99 C 11.95833 km/h
281 07-08-2020 16:00:00 34.60833 C 11.39 g/m*3 34.61 C 11.16667 km/h
282 07-08-2020 17:00:00 34.99167 C 11.1 g/m*3 34.99 C 12.63333 km/h
283 07-08-2020 18:00:00 35.4 C 10.9 g/m*3 35.4 C 9.80833 km/h
284 07-08-2020 19:00:00 34.58333 C 11.96 g/m*3 34.58 C 4.025 km/h
285 07-08-2020 20:00:00 31.36667 C 12.92 g/m*3 31.37 C 4.13333 km/h
286 07-08-2020 21:00:00 27.05 C 12.17 g/m*3 27.05 C 6.45 km/h
287 07-08-2020 22:00:00 24.48333 C 12.63 g/m*3 24.48 C 0.93333 km/h
288 07-08-2020 23:00:00 22.61667 C 12.58 g/m*3 22.62 C 0 km/h
289 08-08-2020 00:00:00 21.14167 C 12.53 g/m*3 21.14 C 0 km/h
290 08-08-2020 01:00:00 20.04167 C 12.46 g/m*3 20.04 C 0 km/h
291 08-08-2020 02:00:00 19.19167 C 12.39 g/m*3 19.19 C 0 km/h
292 08-08-2020 03:00:00 18.58333 C 12.3 g/m*3 18.58 C 0 km/h
293 08-08-2020 04:00:00 17.83333 C 12.19 g/m*3 17.83 C 0 km/h
294 08-08-2020 05:00:00 17.36667 C 12.13 g/m*3 17.37 C 0 km/h
295 08-08-2020 06:00:00 17.025 C 12.16 g/m*3 17.02 C 0 km/h
296 08-08-2020 07:00:00 17.41667 C 12.61 g/m*3 17.42 C 0 km/h
297 08-08-2020 08:00:00 18.48333 C 13.32 g/m*3 18.48 C 0 km/h
298 08-08-2020 09:00:00 20.175 C 14.14 g/m*3 20.18 C 0 km/h
299 08-08-2020 10:00:00 22.85 C 14.49 g/m*3 22.85 C 0 km/h
300 08-08-2020 11:00:00 27.075 C 15.44 g/m*3 27.08 C 0 km/h
Sensor: Nr:Datum:Temp:Abs-Feuchte:Windchill:Wind:
Aussen-T/F 301 08-08-2020 12:00:00 30.46667 C 15.29 g/m*3 30.47 C 0 km/h
302 08-08-2020 13:00:00 32.61667 C 14.07 g/m*3 32.62 C 8.6 km/h
303 08-08-2020 14:00:00 33.7 C 13.45 g/m*3 33.7 C 8.75833 km/h
304 08-08-2020 15:00:00 34.825 C 13.22 g/m*3 34.83 C 8.34167 km/h
305 08-08-2020 16:00:00 36.80833 C 13.06 g/m*3 36.81 C 7.375 km/h
306 08-08-2020 17:00:00 37.90833 C 12.09 g/m*3 37.91 C 6.425 km/h
307 08-08-2020 18:00:00 37.19167 C 11.88 g/m*3 37.19 C 7.125 km/h
308 08-08-2020 19:00:00 36.44167 C 13.28 g/m*3 36.44 C 4.01667 km/h
309 08-08-2020 20:00:00 31.76667 C 13.42 g/m*3 31.77 C 5.475 km/h
310 08-08-2020 21:00:00 27.80833 C 13.14 g/m*3 27.81 C 5.60833 km/h
311 08-08-2020 22:00:00 26.21667 C 13.22 g/m*3 26.22 C 2.53333 km/h
312 08-08-2020 23:00:00 24.21667 C 13.27 g/m*3 24.22 C 0 km/h
313 09-08-2020 00:00:00 23.01667 C 13.39 g/m*3 23.02 C 0 km/h
314 09-08-2020 01:00:00 22 C 13.31 g/m*3 22 C 0 km/h
315 09-08-2020 02:00:00 20.875 C 13.11 g/m*3 20.88 C 0 km/h
316 09-08-2020 03:00:00 19.925 C 12.89 g/m*3 19.93 C 0 km/h
317 09-08-2020 04:00:00 19.375 C 12.86 g/m*3 19.38 C 0 km/h
318 09-08-2020 05:00:00 18.775 C 12.77 g/m*3 18.77 C 0 km/h
319 09-08-2020 06:00:00 18.54167 C 12.86 g/m*3 18.54 C 0 km/h
320 09-08-2020 07:00:00 18.96667 C 13.38 g/m*3 18.97 C 0 km/h
321 09-08-2020 08:00:00 19.76667 C 13.89 g/m*3 19.77 C 0 km/h
322 09-08-2020 09:00:00 21.375 C 14.73 g/m*3 21.38 C 0 km/h
323 09-08-2020 10:00:00 24.14167 C 14.73 g/m*3 24.14 C 0 km/h
324 09-08-2020 11:00:00 28.25 C 14.73 g/m*3 28.25 C 0 km/h
325 09-08-2020 12:00:00 32.01667 C 13.66 g/m*3 32.02 C 2.81667 km/h
Sensor: Nr:Datum:Temp:Abs-Feuchte:Windchill:Wind:
Aussen-T/F 326 09-08-2020 13:00:00 33.56667 C 12.93 g/m*3 33.57 C 5.61667 km/h
327 09-08-2020 14:00:00 34.46667 C 13.14 g/m*3 34.47 C 6.70833 km/h
328 09-08-2020 15:00:00 31.25 C 16.33 g/m*3 31.25 C 6.96667 km/h
329 09-08-2020 16:00:00 28.85 C 14.39 g/m*3 28.85 C 4.95 km/h
330 09-08-2020 17:00:00 28.025 C 14.52 g/m*3 28.03 C 3.075 km/h
331 09-08-2020 18:00:00 27.50833 C 14.38 g/m*3 27.51 C 3.86667 km/h
332 09-08-2020 19:00:00 26.88333 C 15.77 g/m*3 26.88 C 3.20833 km/h
333 09-08-2020 20:00:00 24.6 C 15.87 g/m*3 24.6 C 7.50833 km/h
334 09-08-2020 21:00:00 21.11667 C 15.92 g/m*3 21.12 C 6.15833 km/h
335 09-08-2020 22:00:00 20.66667 C 16.32 g/m*3 20.67 C 3.875 km/h
336 09-08-2020 23:00:00 20.66667 C 16.13 g/m*3 20.67 C 1.2 km/h
337 10-08-2020 00:00:00 19.74167 C 15.22 g/m*3 19.74 C 0.26667 km/h
338 10-08-2020 01:00:00 19.94167 C 15.54 g/m*3 19.94 C 6.16667 km/h
339 10-08-2020 02:00:00 20.61667 C 15.63 g/m*3 20.62 C 1.33333 km/h
340 10-08-2020 03:00:00 20.19167 C 15.41 g/m*3 20.19 C 1.46667 km/h
341 10-08-2020 04:00:00 19.55 C 15.06 g/m*3 19.55 C 0.26667 km/h
342 10-08-2020 05:00:00 19.80833 C 15.38 g/m*3 19.81 C 0.26667 km/h
343 10-08-2020 06:00:00 19.39167 C 15.04 g/m*3 19.39 C 0 km/h
344 10-08-2020 07:00:00 19.48333 C 15.38 g/m*3 19.48 C 0.13333 km/h
345 10-08-2020 08:00:00 20.59167 C 16.1 g/m*3 20.59 C 0.4 km/h
346 10-08-2020 09:00:00 23.175 C 16.47 g/m*3 23.18 C 6.175 km/h
347 10-08-2020 10:00:00 25.19167 C 16.09 g/m*3 25.19 C 7.11667 km/h
348 10-08-2020 11:00:00 26.81667 C 15.69 g/m*3 26.82 C 11.3 km/h
349 10-08-2020 12:00:00 27.4 C 15.81 g/m*3 27.4 C 11.15833 km/h
350 10-08-2020 13:00:00 29.275 C 16.01 g/m*3 29.28 C 13.7 km/h
Sensor: Nr:Datum:Temp:Abs-Feuchte:Windchill:Wind:
Aussen-T/F 351 10-08-2020 14:00:00 31.04167 C 15.98 g/m*3 31.04 C 12.63333 km/h
352 10-08-2020 15:00:00 32.54167 C 15.87 g/m*3 32.54 C 13.43333 km/h
353 10-08-2020 16:00:00 33.825 C 14.13 g/m*3 33.83 C 11.41667 km/h
354 10-08-2020 17:00:00 34.40833 C 13.99 g/m*3 34.41 C 10.89167 km/h
355 10-08-2020 18:00:00 33.76667 C 14.73 g/m*3 33.77 C 8.875 km/h
356 10-08-2020 19:00:00 32.325 C 16.34 g/m*3 32.33 C 1.6 km/h
357 10-08-2020 20:00:00 29.50833 C 16.29 g/m*3 29.51 C 1.46667 km/h
358 10-08-2020 21:00:00 26.48333 C 15.88 g/m*3 26.48 C 2.4 km/h
359 10-08-2020 22:00:00 26.375 C 15.43 g/m*3 26.38 C 2.675 km/h
360 10-08-2020 23:00:00 24.98333 C 15.39 g/m*3 24.98 C 2.53333 km/h
361 11-08-2020 00:00:00 23.59167 C 15.43 g/m*3 23.59 C 1.86667 km/h
362 11-08-2020 01:00:00 22.78333 C 15.41 g/m*3 22.78 C 1.6 km/h
363 11-08-2020 02:00:00 22.04167 C 15.26 g/m*3 22.04 C 2.53333 km/h
364 11-08-2020 03:00:00 21.56667 C 15.03 g/m*3 21.57 C 2.8 km/h
365 11-08-2020 04:00:00 20.99167 C 14.83 g/m*3 20.99 C 0.13333 km/h
366 11-08-2020 05:00:00 20.6 C 14.68 g/m*3 20.6 C 0 km/h
367 11-08-2020 06:00:00 20.11667 C 14.41 g/m*3 20.12 C 0 km/h
368 11-08-2020 07:00:00 20.30833 C 14.88 g/m*3 20.31 C 0 km/h
369 11-08-2020 08:00:00 21.775 C 15.53 g/m*3 21.78 C 0.66667 km/h
370 11-08-2020 09:00:00 23.60833 C 15.59 g/m*3 23.61 C 0.53333 km/h
371 11-08-2020 10:00:00 25.6 C 16.03 g/m*3 25.6 C 5.65 km/h
372 11-08-2020 11:00:00 28.30833 C 16.2 g/m*3 28.31 C 10.75833 km/h
373 11-08-2020 12:00:00 29.675 C 16.41 g/m*3 29.68 C 4.54167 km/h
374 11-08-2020 13:00:00 30.40833 C 16.66 g/m*3 30.41 C 2.4 km/h
375 11-08-2020 14:00:00 32.28333 C 15.68 g/m*3 32.28 C 7.525 km/h
Sensor: Nr:Datum:Temp:Abs-Feuchte:Windchill:Wind:
Aussen-T/F 376 11-08-2020 15:00:00 33.4 C 14.75 g/m*3 33.4 C 7.51667 km/h
377 11-08-2020 16:00:00 35.275 C 13.97 g/m*3 35.28 C 10.61667 km/h
378 11-08-2020 17:00:00 34.475 C 13.94 g/m*3 34.48 C 8.86667 km/h
379 11-08-2020 18:00:00 32.14167 C 14.2 g/m*3 32.14 C 6.15833 km/h
380 11-08-2020 19:00:00 29.80833 C 15.88 g/m*3 29.81 C 5.75833 km/h
381 11-08-2020 20:00:00 24.85 C 17.71 g/m*3 24.85 C 8.45833 km/h
382 11-08-2020 21:00:00 22.13333 C 17.88 g/m*3 22.13 C 8.325 km/h
383 11-08-2020 22:00:00 21.525 C 17.63 g/m*3 21.53 C 6.30833 km/h
384 11-08-2020 23:00:00 21.30833 C 17.69 g/m*3 21.31 C 5.08333 km/h
385 12-08-2020 00:00:00 21.13333 C 17.54 g/m*3 21.13 C 4.4 km/h
386 12-08-2020 01:00:00 20.75 C 17.2 g/m*3 20.75 C 2 km/h
387 12-08-2020 02:00:00 20.59167 C 17.17 g/m*3 20.59 C 0.66667 km/h
388 12-08-2020 03:00:00 20.33333 C 16.92 g/m*3 20.33 C 0 km/h
389 12-08-2020 04:00:00 19.825 C 16.42 g/m*3 19.83 C 0 km/h
390 12-08-2020 05:00:00 19.66667 C 16.31 g/m*3 19.67 C 1.2 km/h
391 12-08-2020 06:00:00 19.425 C 16.17 g/m*3 19.43 C 2.4 km/h
392 12-08-2020 07:00:00 19.75833 C 16.53 g/m*3 19.76 C 0 km/h
393 12-08-2020 08:00:00 20.48333 C 17.26 g/m*3 20.48 C 0 km/h
394 12-08-2020 09:00:00 20.70833 C 17.49 g/m*3 20.71 C 0 km/h
395 12-08-2020 10:00:00 21.23333 C 18.01 g/m*3 21.23 C 2.69167 km/h
396 12-08-2020 11:00:00 24.20833 C 17.69 g/m*3 24.21 C 10.61667 km/h
397 12-08-2020 12:00:00 27.01667 C 17.37 g/m*3 27.02 C 10.1 km/h
398 12-08-2020 13:00:00 29.01667 C 17.56 g/m*3 29.02 C 11.81667 km/h
399 12-08-2020 14:00:00 30.84167 C 17.56 g/m*3 30.84 C 9.275 km/h
400 12-08-2020 15:00:00 33.1 C 16.43 g/m*3 33.1 C 8.05 km/h
Sensor: Nr:Datum:Temp:Abs-Feuchte:Windchill:Wind:
Aussen-T/F 401 12-08-2020 16:00:00 34.81667 C 16.02 g/m*3 34.82 C 10.08333 km/h
402 12-08-2020 17:00:00 31.975 C 18.49 g/m*3 31.98 C 6.69167 km/h
403 12-08-2020 18:00:00 27.06667 C 15.52 g/m*3 27.07 C 11.94167 km/h
404 12-08-2020 19:00:00 23.43333 C 17.5 g/m*3 23.43 C 5.08333 km/h
405 12-08-2020 20:00:00 21.38333 C 17.11 g/m*3 21.38 C 0.66667 km/h
406 12-08-2020 21:00:00 20.73333 C 16.83 g/m*3 20.73 C 0.93333 km/h
407 12-08-2020 22:00:00 20.45 C 16.68 g/m*3 20.45 C 4.54167 km/h
408 12-08-2020 23:00:00 19.84167 C 16.07 g/m*3 19.84 C 1.73333 km/h
409 13-08-2020 00:00:00 19.925 C 16.3 g/m*3 19.93 C 0.93333 km/h
410 13-08-2020 01:00:00 19.75833 C 16.09 g/m*3 19.76 C 0.66667 km/h
411 13-08-2020 02:00:00 19.38333 C 15.68 g/m*3 19.38 C 2.66667 km/h
412 13-08-2020 03:00:00 19.025 C 15.5 g/m*3 19.02 C 0.53333 km/h
413 13-08-2020 04:00:00 18.99167 C 15.53 g/m*3 18.99 C 1.075 km/h
414 13-08-2020 05:00:00 19.775 C 16.37 g/m*3 19.77 C 6.16667 km/h
415 13-08-2020 06:00:00 19.83333 C 16.43 g/m*3 19.83 C 4.14167 km/h
416 13-08-2020 07:00:00 19.65833 C 16.29 g/m*3 19.66 C 2 km/h
417 13-08-2020 08:00:00 19.80833 C 16.58 g/m*3 19.81 C 1.06667 km/h
418 13-08-2020 09:00:00 20.525 C 17.29 g/m*3 20.53 C 0 km/h
419 13-08-2020 10:00:00 21.64167 C 18.44 g/m*3 21.64 C 0.4 km/h
420 13-08-2020 11:00:00 23.025 C 19.91 g/m*3 23.03 C 2 km/h
421 13-08-2020 12:00:00 25.13333 C 19.48 g/m*3 25.13 C 5.49167 km/h
422 13-08-2020 13:00:00 27.83333 C 19.04 g/m*3 27.83 C 8.33333 km/h
423 13-08-2020 14:00:00 29.725 C 16.98 g/m*3 29.73 C 13.025 km/h
424 13-08-2020 15:00:00 29.45833 C 15.48 g/m*3 29.46 C 15.7 km/h
425 13-08-2020 16:00:00 28.44167 C 15.69 g/m*3 28.44 C 11.01667 km/h
Sensor: Nr:Datum:Temp:Abs-Feuchte:Windchill:Wind:
Aussen-T/F 426 13-08-2020 17:00:00 28.45833 C 16.5 g/m*3 28.46 C 5.89167 km/h
427 13-08-2020 18:00:00 28.85833 C 17.5 g/m*3 28.86 C 2.54167 km/h
428 13-08-2020 19:00:00 27.60833 C 18.67 g/m*3 27.61 C 0.66667 km/h
429 13-08-2020 20:00:00 25.25833 C 17.98 g/m*3 25.26 C 2.8 km/h
430 13-08-2020 21:00:00 22.86667 C 16.95 g/m*3 22.87 C 6.43333 km/h
431 13-08-2020 22:00:00 22.6 C 16.86 g/m*3 22.6 C 4.28333 km/h
432 13-08-2020 23:00:00 22.61667 C 16.76 g/m*3 22.62 C 0.26667 km/h
433 14-08-2020 00:00:00 22.15 C 16.57 g/m*3 22.15 C 1.2 km/h
434 14-08-2020 01:00:00 21.7 C 16.44 g/m*3 21.7 C 1.86667 km/h
435 14-08-2020 02:00:00 21.09167 C 16.02 g/m*3 21.09 C 1.2 km/h
436 14-08-2020 03:00:00 20.03333 C 15.43 g/m*3 20.03 C 0 km/h
437 14-08-2020 04:00:00 19.26667 C 14.95 g/m*3 19.27 C 0.93333 km/h
438 14-08-2020 05:00:00 18.74167 C 14.78 g/m*3 18.74 C 0.66667 km/h
439 14-08-2020 06:00:00 18.74167 C 14.89 g/m*3 18.74 C 0.53333 km/h
440 14-08-2020 07:00:00 18.95 C 14.98 g/m*3 18.95 C 0.26667 km/h
441 14-08-2020 08:00:00 19.95833 C 15.66 g/m*3 19.96 C 0 km/h
442 14-08-2020 09:00:00 21.06667 C 15.94 g/m*3 21.07 C 3.89167 km/h
443 14-08-2020 10:00:00 22.61667 C 15.72 g/m*3 22.62 C 10.35833 km/h
444 14-08-2020 11:00:00 22.3 C 15.67 g/m*3 22.3 C 7.78333 km/h
445 14-08-2020 12:00:00 22.33333 C 15.65 g/m*3 22.33 C 6.70833 km/h
446 14-08-2020 13:00:00 23.25833 C 16.06 g/m*3 23.26 C 8.88333 km/h
447 14-08-2020 14:00:00 25.225 C 16.42 g/m*3 25.23 C 12.9 km/h
448 14-08-2020 15:00:00 27.36667 C 16.02 g/m*3 27.37 C 11.43333 km/h
449 14-08-2020 16:00:00 29.175 C 15.01 g/m*3 29.18 C 14.36667 km/h
450 14-08-2020 17:00:00 30.06667 C 15.06 g/m*3 30.07 C 10.49167 km/h
Sensor: Nr:Datum:Temp:Abs-Feuchte:Windchill:Wind:
Aussen-T/F 451 14-08-2020 18:00:00 30.35833 C 15.23 g/m*3 30.36 C 11.43333 km/h
452 14-08-2020 19:00:00 28.625 C 15.92 g/m*3 28.63 C 5.5 km/h
453 14-08-2020 20:00:00 26.15 C 15.94 g/m*3 26.15 C 2.94167 km/h
454 14-08-2020 21:00:00 23.05833 C 16.1 g/m*3 23.06 C 4.55 km/h
455 14-08-2020 22:00:00 22.05 C 15.83 g/m*3 22.05 C 0 km/h
456 14-08-2020 23:00:00 21.625 C 15.72 g/m*3 21.63 C 0.53333 km/h
457 15-08-2020 00:00:00 21.30833 C 15.82 g/m*3 21.31 C 1.73333 km/h
458 15-08-2020 01:00:00 20.91667 C 15.78 g/m*3 20.92 C 0.26667 km/h
459 15-08-2020 02:00:00 20.15 C 15.28 g/m*3 20.15 C 1.33333 km/h
460 15-08-2020 03:00:00 19.4 C 15.07 g/m*3 19.4 C 0.13333 km/h
461 15-08-2020 04:00:00 18.70833 C 14.79 g/m*3 18.71 C 0 km/h
462 15-08-2020 05:00:00 18.30833 C 14.65 g/m*3 18.31 C 0 km/h
463 15-08-2020 06:00:00 18.28333 C 14.72 g/m*3 18.28 C 0 km/h
464 15-08-2020 07:00:00 18.56667 C 15.08 g/m*3 18.57 C 0 km/h
465 15-08-2020 08:00:00 19.5 C 15.79 g/m*3 19.5 C 0 km/h
466 15-08-2020 09:00:00 20.65833 C 16.21 g/m*3 20.66 C 0.53333 km/h
467 15-08-2020 10:00:00 22.24167 C 16.74 g/m*3 22.24 C 3.73333 km/h
468 15-08-2020 11:00:00 23.94167 C 17.11 g/m*3 23.94 C 4.15 km/h
469 15-08-2020 12:00:00 25.04167 C 16.98 g/m*3 25.04 C 6.43333 km/h
470 15-08-2020 13:00:00 25.825 C 16.63 g/m*3 25.83 C 5.91667 km/h
471 15-08-2020 14:00:00 26.01667 C 16.04 g/m*3 26.02 C 8.59167 km/h
472 15-08-2020 15:00:00 24.44167 C 15.48 g/m*3 24.44 C 2.94167 km/h
473 15-08-2020 16:00:00 23.025 C 16.98 g/m*3 23.03 C 4.68333 km/h
474 15-08-2020 17:00:00 23.55 C 17.43 g/m*3 23.55 C 4.00833 km/h
475 15-08-2020 18:00:00 23.98333 C 17.48 g/m*3 23.98 C 0 km/h
Sensor: Nr:Datum:Temp:Abs-Feuchte:Windchill:Wind:
Aussen-T/F 476 15-08-2020 19:00:00 23.4 C 17.7 g/m*3 23.4 C 0.26667 km/h
477 15-08-2020 20:00:00 23.175 C 17.61 g/m*3 23.18 C 0.26667 km/h
478 15-08-2020 21:00:00 21.99167 C 16.63 g/m*3 21.99 C 0 km/h
479 15-08-2020 22:00:00 21.13333 C 16.48 g/m*3 21.13 C 0 km/h
480 15-08-2020 23:00:00 20.44167 C 16.11 g/m*3 20.44 C 0 km/h
481 16-08-2020 00:00:00 19.65 C 15.62 g/m*3 19.65 C 0.13333 km/h
482 16-08-2020 01:00:00 19.175 C 15.35 g/m*3 19.18 C 0.26667 km/h
483 16-08-2020 02:00:00 18.875 C 15.21 g/m*3 18.88 C 0.53333 km/h
484 16-08-2020 03:00:00 18.43333 C 14.83 g/m*3 18.43 C 0 km/h
485 16-08-2020 04:00:00 18.13333 C 14.68 g/m*3 18.13 C 0 km/h
486 16-08-2020 05:00:00 17.9 C 14.5 g/m*3 17.9 C 0 km/h
487 16-08-2020 06:00:00 17.45833 C 14.18 g/m*3 17.46 C 0 km/h
488 16-08-2020 07:00:00 17.59167 C 14.39 g/m*3 17.59 C 0 km/h
489 16-08-2020 08:00:00 18.44167 C 15.27 g/m*3 18.44 C 0.4 km/h
490 16-08-2020 09:00:00 19.525 C 16.16 g/m*3 19.52 C 2.94167 km/h
491 16-08-2020 10:00:00 22.6 C 16.71 g/m*3 22.6 C 7.8 km/h
492 16-08-2020 11:00:00 25.84167 C 16.61 g/m*3 25.84 C 9.68333 km/h
493 16-08-2020 12:00:00 27.64167 C 16.38 g/m*3 27.64 C 9.26667 km/h
494 16-08-2020 13:00:00 28.5 C 16.33 g/m*3 28.5 C 7.26667 km/h
495 16-08-2020 14:00:00 29.825 C 15.29 g/m*3 29.83 C 11.83333 km/h
496 16-08-2020 15:00:00 30.73333 C 14.75 g/m*3 30.73 C 9.80833 km/h
497 16-08-2020 16:00:00 31.375 C 14.8 g/m*3 31.38 C 8.875 km/h
498 16-08-2020 17:00:00 28.84167 C 15.92 g/m*3 28.84 C 3.08333 km/h
499 16-08-2020 18:00:00 27.45833 C 15.57 g/m*3 27.46 C 7.10833 km/h
500 16-08-2020 19:00:00 24.15 C 16.55 g/m*3 24.15 C 6.025 km/h
Sensor: Nr:Datum:Temp:Abs-Feuchte:Windchill:Wind:
Aussen-T/F 501 16-08-2020 20:00:00 21.40833 C 15.83 g/m*3 21.41 C 9.54167 km/h
502 16-08-2020 21:00:00 19.51667 C 15.44 g/m*3 19.52 C 5.09167 km/h
503 16-08-2020 22:00:00 19.25833 C 15.55 g/m*3 19.26 C 4.55 km/h
504 16-08-2020 23:00:00 18.275 C 14.74 g/m*3 18.27 C 4.68333 km/h

Maximal/Minimal-Werte vom 27.07.2020 - 16.08.2020

Sensor Min Max Avg
Temp
(Aussen-T/F)
10.1 °C
05-08-2020  06:25:00
38.2 °C
08-08-2020  17:10:00
22.4 °C
Abs-Feuchte
(Aussen-T/F)
8.39 g/m*3
05-08-2020  05:00:00
19.91 g/m*3
13-08-2020  11:00:00
12.97 g/m*3
Windchill
(Aussen-T/F)
10.16 C
05-08-2020  06:00:00
37.91 C
08-08-2020  17:00:00
22.36 C

Die Daten stammen von einer Davis Vantage Pro 2 Wetter-Station und werden unter Linux mit der Software wview2wettercgi und aufbereitet. Alle Angaben erfolgen ohne Gewähr für ihre Vollständigkeit oder Richtigkeit.
Kontakt: Rainer Krienke krienke@uni-koblenz.de . Meine Webseiten an der Uni Koblenz oder privat.
Version: $Revision: 0.78 $